createdAt,value
2023-03-22T00:01:48.059Z,8.60
2023-03-22T00:06:50.486Z,8.98
2023-03-22T00:11:53.084Z,8.50
2023-03-22T00:16:55.814Z,8.02
2023-03-22T00:21:58.245Z,7.85
2023-03-22T00:27:01.270Z,6.72
2023-03-22T00:32:04.745Z,8.45
2023-03-22T00:37:08.368Z,7.65
2023-03-22T00:42:11.119Z,6.20
2023-03-22T00:47:14.375Z,6.50
2023-03-22T00:52:16.913Z,7.05
2023-03-22T00:57:19.522Z,6.35
2023-03-22T01:02:29.891Z,6.85
2023-03-22T01:12:39.420Z,5.93
2023-03-22T01:17:42.142Z,6.75
2023-03-22T01:22:44.767Z,7.47
2023-03-22T01:27:47.451Z,8.00
2023-03-22T01:32:49.792Z,7.90
2023-03-22T01:37:53.192Z,6.63
2023-03-22T01:42:56.469Z,11.40
2023-03-22T01:48:03.581Z,11.98
2023-03-22T01:53:13.959Z,12.07
2023-03-22T01:58:18.399Z,11.45
2023-03-22T02:03:43.728Z,11.68
2023-03-22T02:08:50.032Z,13.50
2023-03-22T02:14:09.394Z,12.52
2023-03-22T02:20:10.598Z,9.75
2023-03-22T02:25:39.316Z,7.72
2023-03-22T02:31:09.300Z,9.30
2023-03-22T02:41:34.161Z,8.48
2023-03-22T02:47:04.416Z,9.57
2023-03-22T02:52:24.379Z,7.80
2023-03-22T02:57:49.726Z,6.57
2023-03-22T03:02:57.847Z,7.03
2023-03-22T03:08:03.568Z,6.53
2023-03-22T03:13:13.503Z,6.57
2023-03-22T03:18:44.981Z,6.88
2023-03-22T03:24:00.568Z,5.97
2023-03-22T03:29:19.983Z,6.40
2023-03-22T03:34:42.412Z,7.68
2023-03-22T03:39:56.857Z,6.05
2023-03-22T03:45:00.528Z,6.35
2023-03-22T03:50:05.134Z,6.45
2023-03-22T03:55:08.317Z,6.50
2023-03-22T04:00:14.776Z,7.90
2023-03-22T04:05:28.657Z,5.38
2023-03-22T04:10:31.906Z,7.25
2023-03-22T04:15:34.957Z,5.88
2023-03-22T04:20:42.216Z,6.78
2023-03-22T04:25:50.983Z,6.55
2023-03-22T04:31:04.853Z,7.35
2023-03-22T04:36:31.391Z,6.75
2023-03-22T04:42:00.124Z,7.53
2023-03-22T04:47:03.800Z,8.02
2023-03-22T04:52:09.415Z,8.23
2023-03-22T04:57:13.169Z,10.73
2023-03-22T05:02:20.861Z,9.43
2023-03-22T05:07:24.948Z,10.27
2023-03-22T05:12:32.252Z,9.40
2023-03-22T05:17:49.799Z,11.82
2023-03-22T05:22:57.282Z,9.02
2023-03-22T05:28:03.804Z,11.25
2023-03-22T05:33:23.103Z,10.30
2023-03-22T05:38:30.977Z,10.55
2023-03-22T05:43:36.205Z,11.23
2023-03-22T05:48:40.931Z,14.30
2023-03-22T05:53:48.340Z,12.02
2023-03-22T05:58:54.966Z,10.40
2023-03-22T06:03:58.447Z,12.23
2023-03-22T06:09:16.251Z,11.32
2023-03-22T06:14:19.965Z,12.25
2023-03-22T06:19:34.627Z,12.85
2023-03-22T06:24:41.145Z,13.95
2023-03-22T06:29:51.135Z,19.25
2023-03-22T06:34:58.552Z,21.25
2023-03-22T06:40:01.117Z,18.80
2023-03-22T06:45:06.708Z,18.90
2023-03-22T06:50:12.639Z,17.63
2023-03-22T06:55:36.496Z,18.75
2023-03-22T07:00:47.791Z,20.10
2023-03-22T07:05:52.145Z,19.83
2023-03-22T07:10:54.971Z,19.58
2023-03-22T07:16:03.029Z,20.67
2023-03-22T07:21:16.022Z,20.48
2023-03-22T07:26:23.323Z,20.67
2023-03-22T07:31:26.334Z,23.25
2023-03-22T07:36:35.626Z,25.98
2023-03-22T07:41:38.289Z,20.52
2023-03-22T07:46:56.525Z,24.95
2023-03-22T07:52:06.791Z,23.25
2023-03-22T07:57:09.659Z,18.70
2023-03-22T08:02:18.258Z,17.40
2023-03-22T08:07:28.043Z,16.10
2023-03-22T08:12:32.050Z,13.48
2023-03-22T08:17:42.625Z,13.25
2023-03-22T08:22:51.392Z,12.73
2023-03-22T08:28:17.351Z,13.55
2023-03-22T08:33:22.284Z,11.77
2023-03-22T08:38:24.943Z,11.00
2023-03-22T08:43:29.359Z,9.85
2023-03-22T08:53:43.683Z,9.20
2023-03-22T08:59:15.621Z,8.38
2023-03-22T09:04:36.564Z,10.15
2023-03-22T09:09:39.294Z,10.38
2023-03-22T09:14:42.691Z,9.57
2023-03-22T09:19:48.041Z,8.77
2023-03-22T09:24:50.744Z,9.82
2023-03-22T09:29:53.519Z,10.32
2023-03-22T09:34:56.128Z,9.10
2023-03-22T09:40:01.281Z,8.88
2023-03-22T09:45:09.050Z,9.88
2023-03-22T09:50:32.449Z,9.38
2023-03-22T09:55:57.847Z,9.02
2023-03-22T10:01:18.509Z,10.32
2023-03-22T10:06:26.043Z,11.35
2023-03-22T10:11:31.118Z,10.77
2023-03-22T10:16:35.876Z,9.40
2023-03-22T10:21:38.689Z,10.30
2023-03-22T10:31:46.362Z,11.00
2023-03-22T10:36:52.072Z,9.10
2023-03-22T10:42:01.593Z,9.52
2023-03-22T10:47:09.370Z,8.38
2023-03-22T10:52:39.812Z,9.48
2023-03-22T10:57:46.846Z,8.15
2023-03-22T11:03:00.381Z,9.60
2023-03-22T11:08:03.752Z,7.95
2023-03-22T11:13:09.750Z,8.10
2023-03-22T11:18:16.036Z,8.85
2023-03-22T11:23:21.440Z,8.43
2023-03-22T11:28:34.541Z,7.72
2023-03-22T11:33:38.045Z,7.93
2023-03-22T11:38:44.872Z,9.27
2023-03-22T11:43:54.080Z,7.78
2023-03-22T11:49:06.170Z,7.95
2023-03-22T11:54:23.599Z,7.22
2023-03-22T11:59:40.248Z,7.60
2023-03-22T12:04:45.172Z,6.35
2023-03-22T12:09:58.372Z,5.82
2023-03-22T12:15:08.921Z,5.88
2023-03-22T12:25:35.003Z,5.97
2023-03-22T12:30:45.320Z,6.18
2023-03-22T12:35:51.831Z,5.47
2023-03-22T12:40:58.026Z,5.20
2023-03-22T12:46:04.966Z,7.40
2023-03-22T12:51:14.883Z,5.50
2023-03-22T12:56:21.538Z,5.72
2023-03-22T13:01:47.861Z,5.50
2023-03-22T13:06:53.837Z,5.18
2023-03-22T13:12:18.025Z,5.28
2023-03-22T13:17:23.528Z,4.93
2023-03-22T13:22:30.757Z,5.45
2023-03-22T13:27:38.731Z,4.75
2023-03-22T13:32:53.221Z,5.95
2023-03-22T13:38:07.934Z,5.18
2023-03-22T13:43:34.121Z,6.38
2023-03-22T13:48:48.996Z,6.68
2023-03-22T13:53:57.359Z,5.43
2023-03-22T13:59:00.902Z,5.85
2023-03-22T14:04:11.602Z,6.40
2023-03-22T14:09:25.571Z,5.82
2023-03-22T14:14:37.034Z,5.18
2023-03-22T14:19:42.358Z,5.10
